Time;durP1;ratioP1;P1;durP2;ratioP2;P2;SDS_P1;SDS_P2;PMS_P1;PMS_P2;Temp;Humidity;BMP_temperature;BMP_pressure;BME280_temperature;BME280_humidity;BME280_pressure;Samples;Min_cycle;Max_cycle;Signal;HPM_P1;HPM_P2
2021/06/24 00:03:53;;;;;;;7.85;4.88;;;18.40;99.90;;;;;;10433171;28;20044;-61
2021/06/24 00:08:55;;;;;;;7.57;5.88;;;18.40;99.90;;;;;;10428119;28;20496;-61
2021/06/24 00:13:58;;;;;;;10.02;5.72;;;18.30;99.90;;;;;;10429718;28;20142;-61
2021/06/24 00:19:00;;;;;;;11.32;6.07;;;18.30;99.90;;;;;;10432792;28;20372;-61
2021/06/24 00:24:01;;;;;;;9.60;5.55;;;18.20;99.90;;;;;;10428253;28;20132;-61
2021/06/24 00:29:03;;;;;;;8.05;5.72;;;18.20;99.90;;;;;;10427469;28;20057;-64
2021/06/24 00:34:05;;;;;;;10.00;5.40;;;18.20;99.90;;;;;;10429040;28;20132;-64
2021/06/24 00:39:06;;;;;;;10.18;5.47;;;18.20;99.90;;;;;;10429820;28;20045;-61
2021/06/24 00:44:08;;;;;;;8.20;5.10;;;18.20;99.90;;;;;;10431324;28;20045;-61
2021/06/24 00:49:10;;;;;;;7.88;5.00;;;18.20;99.90;;;;;;10430739;28;20483;-61
2021/06/24 00:54:12;;;;;;;6.82;4.93;;;18.20;99.90;;;;;;10428101;28;20114;-61
2021/06/24 00:59:14;;;;;;;12.18;5.38;;;18.10;99.90;;;;;;10429886;28;20550;-63
2021/06/24 01:04:21;;;;;;;10.75;5.43;;;18.10;99.90;;;;;;10427118;28;20072;-62
2021/06/24 01:09:23;;;;;;;8.32;5.18;;;18.00;99.90;;;;;;10426990;28;20484;-61
2021/06/24 01:14:25;;;;;;;10.70;5.55;;;18.00;99.90;;;;;;10427200;28;20142;-62
2021/06/24 01:19:26;;;;;;;7.93;5.00;;;18.00;99.90;;;;;;10429900;28;20385;-61
2021/06/24 01:24:28;;;;;;;9.85;4.78;;;17.90;99.90;;;;;;10425954;28;20091;-61
2021/06/24 01:29:30;;;;;;;7.72;5.22;;;17.90;99.90;;;;;;10428163;28;20106;-62
2021/06/24 01:34:32;;;;;;;10.20;5.05;;;17.80;99.90;;;;;;10421938;28;20044;-61
2021/06/24 01:39:34;;;;;;;12.45;5.22;;;17.90;99.90;;;;;;10425252;28;20078;-62
2021/06/24 01:44:37;;;;;;;9.52;5.45;;;17.90;99.90;;;;;;10428575;28;20053;-62
2021/06/24 01:49:39;;;;;;;7.00;4.82;;;17.90;99.90;;;;;;10425808;28;20056;-61
2021/06/24 01:54:46;;;;;;;8.10;4.90;;;17.90;99.90;;;;;;10427418;28;20677;-62
2021/06/24 01:59:48;;;;;;;7.00;4.93;;;17.90;99.90;;;;;;10436790;28;20040;-62
2021/06/24 02:04:50;;;;;;;8.90;7.35;;;17.80;99.90;;;;;;10175386;28;20076;-62
2021/06/24 02:09:52;;;;;;;13.18;8.18;;;17.80;99.90;;;;;;10138836;28;20047;-62
2021/06/24 02:14:54;;;;;;;8.07;7.07;;;17.80;99.90;;;;;;10137898;28;21874;-62
2021/06/24 02:19:55;;;;;;;13.35;6.00;;;17.70;99.90;;;;;;10245814;28;20126;-62
2021/06/24 02:24:57;;;;;;;14.95;7.25;;;17.70;99.90;;;;;;10433114;28;20049;-62
2021/06/24 02:29:59;;;;;;;11.48;5.75;;;17.60;99.90;;;;;;10432876;28;20045;-61
2021/06/24 02:35:02;;;;;;;10.00;7.10;;;17.60;99.90;;;;;;10433144;28;20073;-61
2021/06/24 02:40:06;;;;;;;14.85;6.00;;;17.50;99.90;;;;;;10433308;28;20068;-61
2021/06/24 02:45:09;;;;;;;10.23;6.30;;;17.50;99.90;;;;;;10430299;28;20045;-62
2021/06/24 02:50:12;;;;;;;6.60;5.85;;;17.50;99.90;;;;;;10432789;28;20125;-61
2021/06/24 02:55:14;;;;;;;13.55;6.65;;;17.40;99.90;;;;;;10431363;28;20111;-61
2021/06/24 03:00:16;;;;;;;10.52;6.28;;;17.30;99.90;;;;;;10433922;28;20083;-62
2021/06/24 03:05:18;;;;;;;9.80;5.60;;;17.30;99.90;;;;;;10432973;28;20130;-61
2021/06/24 03:10:20;;;;;;;11.82;6.47;;;17.30;99.90;;;;;;10432509;28;20630;-61
2021/06/24 03:15:22;;;;;;;16.70;7.22;;;17.20;99.90;;;;;;10433556;28;20435;-64
2021/06/24 03:20:28;;;;;;;14.45;6.18;;;17.20;99.90;;;;;;10432286;28;20096;-64
2021/06/24 03:25:30;;;;;;;11.93;6.95;;;17.20;99.90;;;;;;10431784;28;20481;-65
2021/06/24 03:30:32;;;;;;;10.52;6.60;;;17.20;99.90;;;;;;10432322;28;20430;-64
2021/06/24 03:35:34;;;;;;;11.95;7.20;;;17.20;99.90;;;;;;10430590;28;20410;-64
2021/06/24 03:40:36;;;;;;;9.65;6.88;;;17.20;99.90;;;;;;10430189;28;20045;-64
2021/06/24 03:45:39;;;;;;;21.00;6.70;;;17.20;99.90;;;;;;10431006;28;20049;-64
2021/06/24 03:50:41;;;;;;;12.40;6.45;;;17.20;99.90;;;;;;10432088;28;20124;-64
2021/06/24 03:55:45;;;;;;;10.27;6.50;;;17.30;99.90;;;;;;10430088;28;20077;-64
2021/06/24 04:00:48;;;;;;;9.43;6.15;;;17.30;99.90;;;;;;10429501;28;20083;-64
2021/06/24 04:05:49;;;;;;;7.80;5.95;;;17.30;99.90;;;;;;10429255;28;20048;-65
2021/06/24 04:10:51;;;;;;;9.52;6.55;;;17.40;99.90;;;;;;10428092;28;20045;-64
2021/06/24 04:15:53;;;;;;;7.90;5.68;;;17.40;99.90;;;;;;10430771;28;20110;-64
2021/06/24 04:20:55;;;;;;;8.35;6.57;;;17.50;99.90;;;;;;10425494;28;20114;-62
2021/06/24 04:25:57;;;;;;;10.55;7.35;;;17.50;99.90;;;;;;10428320;28;20081;-62
2021/06/24 04:30:59;;;;;;;9.18;6.05;;;17.50;99.90;;;;;;10428209;28;20072;-62
2021/06/24 04:36:00;;;;;;;15.13;6.82;;;17.60;99.90;;;;;;10426352;28;20135;-62
2021/06/24 04:41:03;;;;;;;11.77;5.70;;;17.70;99.90;;;;;;10430598;28;20085;-63
2021/06/24 04:46:05;;;;;;;11.60;7.53;;;17.70;99.90;;;;;;10429638;28;20094;-62
2021/06/24 04:51:07;;;;;;;8.50;6.28;;;17.70;99.90;;;;;;10420937;28;20084;-62
2021/06/24 04:56:09;;;;;;;9.82;6.45;;;17.70;99.90;;;;;;10429511;28;20053;-61
2021/06/24 05:01:11;;;;;;;8.35;6.50;;;17.70;99.90;;;;;;10427734;28;20060;-61
2021/06/24 05:06:15;;;;;;;10.98;6.40;;;17.60;99.90;;;;;;10424816;28;20071;-62
2021/06/24 05:11:16;;;;;;;8.27;6.68;;;17.60;99.90;;;;;;10424451;28;20045;-62
2021/06/24 05:16:18;;;;;;;11.88;6.55;;;17.60;99.90;;;;;;10421733;28;20114;-61
2021/06/24 05:21:20;;;;;;;10.90;6.10;;;17.70;99.90;;;;;;10423930;28;20129;-62
2021/06/24 05:26:22;;;;;;;15.07;6.60;;;17.70;99.90;;;;;;10428581;28;20052;-61
2021/06/24 05:31:23;;;;;;;11.50;6.80;;;17.70;99.90;;;;;;10426318;28;20057;-61
2021/06/24 05:36:25;;;;;;;7.60;6.32;;;17.70;99.90;;;;;;10438894;28;20060;-62
2021/06/24 05:41:28;;;;;;;13.65;6.25;;;17.80;99.90;;;;;;10426597;28;20045;-62
2021/06/24 05:46:29;;;;;;;9.30;6.55;;;17.80;99.90;;;;;;10426488;28;20152;-66
2021/06/24 05:51:31;;;;;;;9.68;6.53;;;17.80;99.90;;;;;;10425410;28;20045;-65
2021/06/24 05:56:33;;;;;;;10.57;6.45;;;17.80;99.90;;;;;;10426681;28;20053;-66
2021/06/24 06:01:37;;;;;;;10.43;5.75;;;17.80;99.90;;;;;;10424912;28;20048;-65
2021/06/24 06:06:39;;;;;;;9.27;6.45;;;17.80;99.90;;;;;;10442447;28;20068;-67
2021/06/24 06:11:43;;;;;;;10.75;7.10;;;17.80;99.90;;;;;;10425492;28;20114;-66
2021/06/24 06:16:45;;;;;;;11.00;6.78;;;17.70;99.90;;;;;;10426551;28;20553;-66
2021/06/24 06:21:47;;;;;;;10.30;8.00;;;17.70;99.90;;;;;;10425005;28;20128;-65
2021/06/24 06:26:49;;;;;;;13.13;7.28;;;17.50;99.90;;;;;;10425203;28;20052;-64
2021/06/24 06:31:50;;;;;;;15.57;8.52;;;17.50;99.90;;;;;;10422170;28;20118;-67
2021/06/24 06:36:53;;;;;;;12.02;7.40;;;17.40;99.90;;;;;;10422960;28;20057;-65
2021/06/24 06:41:54;;;;;;;11.50;7.70;;;17.30;99.90;;;;;;10422283;28;20068;-65
2021/06/24 06:46:56;;;;;;;13.73;7.43;;;17.50;99.90;;;;;;10434704;28;20102;-65
2021/06/24 06:51:58;;;;;;;21.52;8.77;;;17.50;99.90;;;;;;10431233;28;20052;-62
2021/06/24 06:56:59;;;;;;;16.85;9.18;;;17.50;99.90;;;;;;10433640;28;20080;-61
2021/06/24 07:02:01;;;;;;;12.63;8.82;;;17.40;99.90;;;;;;10434780;28;20053;-62
2021/06/24 07:07:04;;;;;;;16.65;8.68;;;17.20;99.90;;;;;;10431580;28;20049;-61
2021/06/24 07:12:06;;;;;;;17.02;9.85;;;17.10;99.90;;;;;;10431724;28;20068;-61
2021/06/24 07:17:08;;;;;;;20.70;10.57;;;17.00;99.90;;;;;;10433560;28;20483;-61
2021/06/24 07:22:10;;;;;;;17.88;11.45;;;17.00;99.90;;;;;;10432973;28;20052;-61
2021/06/24 07:27:12;;;;;;;19.15;10.57;;;16.80;99.90;;;;;;10436014;28;20107;-61
2021/06/24 07:32:13;;;;;;;18.27;12.23;;;16.70;99.90;;;;;;10432414;28;20045;-61
2021/06/24 07:37:16;;;;;;;21.13;11.48;;;16.70;99.90;;;;;;10431750;28;20049;-62
2021/06/24 07:42:19;;;;;;;20.70;12.15;;;16.60;99.90;;;;;;10432977;28;20049;-62
2021/06/24 07:47:21;;;;;;;17.88;11.38;;;16.70;99.90;;;;;;10437390;28;20076;-62
2021/06/24 07:52:23;;;;;;;16.48;10.73;;;16.60;99.90;;;;;;10433502;28;20063;-63
2021/06/24 07:57:24;;;;;;;20.30;12.05;;;16.80;99.90;;;;;;10432470;28;20045;-63
2021/06/24 08:02:26;;;;;;;20.67;11.02;;;16.90;99.90;;;;;;10433659;28;20140;-63
2021/06/24 08:07:28;;;;;;;17.45;11.15;;;16.90;99.90;;;;;;10430332;28;20041;-63
2021/06/24 08:12:30;;;;;;;15.38;10.40;;;16.90;99.90;;;;;;10429106;28;20053;-63
2021/06/24 08:17:35;;;;;;;20.33;10.70;;;17.10;99.90;;;;;;10431294;28;20072;-63
2021/06/24 08:22:37;;;;;;;14.82;9.77;;;17.20;99.90;;;;;;10431097;28;20048;-63
2021/06/24 08:27:39;;;;;;;16.70;9.60;;;17.20;99.90;;;;;;10430400;28;20056;-62
2021/06/24 08:32:41;;;;;;;15.07;9.70;;;17.10;99.90;;;;;;10428465;28;20500;-65
2021/06/24 08:37:43;;;;;;;15.65;10.75;;;17.20;99.90;;;;;;10431483;28;20107;-65
2021/06/24 08:42:46;;;;;;;21.63;10.52;;;17.10;99.90;;;;;;10431483;28;20045;-65
2021/06/24 08:47:50;;;;;;;18.50;10.32;;;17.10;99.90;;;;;;10428184;28;20084;-65
2021/06/24 08:52:54;;;;;;;19.50;10.85;;;17.10;99.90;;;;;;10428562;28;20182;-65
2021/06/24 08:57:56;;;;;;;16.58;10.55;;;17.10;99.90;;;;;;10427064;28;20045;-65
2021/06/24 09:03:14;;;;;;;17.95;11.10;;;17.10;99.90;;;;;;10428405;28;20053;-65
2021/06/24 09:08:45;;;;;;;19.25;11.98;;;17.10;99.90;;;;;;10383908;28;20049;-66
2021/06/24 09:13:58;;;;;;;19.65;12.65;;;17.10;99.90;;;;;;10381651;28;20041;-65
2021/06/24 09:19:23;;;;;;;18.70;11.50;;;17.00;99.90;;;;;;10430491;28;20056;-65
2021/06/24 09:24:28;;;;;;;18.15;12.40;;;17.10;99.90;;;;;;10379276;28;20057;-65
2021/06/24 09:29:30;;;;;;;19.95;10.88;;;17.10;99.90;;;;;;10443827;28;20083;-65
2021/06/24 09:34:32;;;;;;;23.63;12.25;;;17.10;99.90;;;;;;10430245;28;20049;-64
2021/06/24 09:39:37;;;;;;;18.00;11.68;;;17.00;99.90;;;;;;10430470;28;20055;-65
2021/06/24 09:44:41;;;;;;;22.05;12.20;;;17.00;99.90;;;;;;10426076;28;20065;-64
2021/06/24 09:50:00;;;;;;;21.13;11.88;;;17.00;99.90;;;;;;10422158;28;20048;-64
2021/06/24 09:55:05;;;;;;;24.00;11.65;;;17.00;99.90;;;;;;10426833;28;20658;-65
2021/06/24 10:00:20;;;;;;;22.63;11.80;;;17.10;99.90;;;;;;10422336;28;20373;-64
2021/06/24 10:05:22;;;;;;;18.63;12.32;;;17.10;99.90;;;;;;10426869;28;20862;-66
2021/06/24 10:10:25;;;;;;;17.70;11.38;;;17.20;99.90;;;;;;10427674;28;20148;-66
2021/06/24 10:15:28;;;;;;;20.75;12.05;;;17.10;99.90;;;;;;10421654;28;20053;-66
2021/06/24 10:20:32;;;;;;;18.73;11.45;;;17.10;99.90;;;;;;10434321;28;20045;-67
2021/06/24 10:25:34;;;;;;;19.17;11.45;;;17.20;99.90;;;;;;10435618;28;20045;-66
2021/06/24 10:30:41;;;;;;;21.55;11.95;;;17.20;99.90;;;;;;10432732;28;20067;-66
2021/06/24 10:35:49;;;;;;;18.40;10.63;;;17.20;99.90;;;;;;10429561;28;20086;-66
2021/06/24 10:40:57;;;;;;;19.27;11.70;;;17.20;99.90;;;;;;10432865;28;20114;-66
2021/06/24 10:46:13;;;;;;;20.90;12.60;;;17.20;99.90;;;;;;10430940;28;20542;-66
2021/06/24 10:51:16;;;;;;;18.20;11.63;;;17.30;99.90;;;;;;10428945;28;20084;-66
2021/06/24 10:56:32;;;;;;;23.55;11.85;;;17.20;99.90;;;;;;10427215;28;20049;-66
2021/06/24 11:01:42;;;;;;;15.98;10.82;;;17.20;99.90;;;;;;10431104;28;20183;-66
2021/06/24 11:06:51;;;;;;;22.55;11.30;;;17.20;99.90;;;;;;10429577;28;20049;-65
2021/06/24 11:11:54;;;;;;;16.90;10.65;;;17.30;99.90;;;;;;10431092;28;20033;-66
2021/06/24 11:16:55;;;;;;;15.95;9.95;;;17.20;99.90;;;;;;10431546;28;20095;-66
2021/06/24 11:21:57;;;;;;;17.85;12.02;;;17.20;99.90;;;;;;10433816;28;20620;-66
2021/06/24 11:27:00;;;;;;;20.25;11.13;;;17.30;99.90;;;;;;10430190;28;20657;-66
2021/06/24 11:32:17;;;;;;;17.38;10.65;;;17.30;99.90;;;;;;10426965;28;20061;-66
2021/06/24 11:37:25;;;;;;;14.35;9.90;;;17.40;99.90;;;;;;10380788;28;20805;-66
2021/06/24 11:42:30;;;;;;;18.92;10.05;;;17.40;99.90;;;;;;10432062;28;20111;-67
2021/06/24 11:47:34;;;;;;;16.92;10.98;;;17.50;99.90;;;;;;10434127;28;20048;-67
2021/06/24 12:03:24;;;;;;;21.05;11.30;;;17.60;99.90;;;;;;10380654;28;20098;-67
2021/06/24 12:08:28;;;;;;;17.15;10.73;;;17.70;99.90;;;;;;10434931;28;20380;-67
2021/06/24 12:13:34;;;;;;;17.55;10.95;;;17.70;99.90;;;;;;10435304;28;20044;-67
2021/06/24 12:18:41;;;;;;;17.92;10.45;;;17.80;99.90;;;;;;10432782;28;20067;-68
2021/06/24 12:23:48;;;;;;;17.00;12.27;;;17.70;99.90;;;;;;10215365;28;20048;-67
2021/06/24 12:28:50;;;;;;;16.58;9.95;;;17.90;99.90;;;;;;10361978;28;20120;-67
2021/06/24 12:34:04;;;;;;;13.93;9.77;;;17.90;99.90;;;;;;10431440;28;20041;-67
2021/06/24 12:39:11;;;;;;;13.10;8.90;;;18.00;99.90;;;;;;10431449;28;20044;-67
2021/06/24 12:44:14;;;;;;;12.43;9.23;;;18.00;99.90;;;;;;10431267;28;20449;-67
2021/06/24 12:49:17;;;;;;;13.43;8.32;;;18.10;99.90;;;;;;10429812;28;20102;-67
2021/06/24 12:54:20;;;;;;;11.98;8.40;;;18.10;99.90;;;;;;10430032;28;20052;-67
2021/06/24 12:59:22;;;;;;;11.75;8.90;;;18.00;99.90;;;;;;10428320;28;20057;-68
2021/06/24 13:04:28;;;;;;;11.35;9.07;;;18.20;99.90;;;;;;10427034;28;20090;-68
2021/06/24 13:09:33;;;;;;;12.57;8.33;;;18.10;99.90;;;;;;10430458;28;20114;-67
2021/06/24 13:14:37;;;;;;;12.05;8.35;;;18.20;99.90;;;;;;10423888;28;20152;-69
2021/06/24 13:19:41;;;;;;;12.35;8.07;;;18.10;99.90;;;;;;10425816;28;20072;-67
2021/06/24 13:24:55;;;;;;;11.55;7.47;;;18.20;99.90;;;;;;10424240;28;20115;-67
2021/06/24 13:29:58;;;;;;;11.15;7.38;;;18.20;99.90;;;;;;10426734;28;20048;-67
2021/06/24 13:35:16;;;;;;;13.38;7.47;;;18.20;99.90;;;;;;10425982;28;20115;-69
2021/06/24 13:40:21;;;;;;;10.00;7.82;;;18.20;99.90;;;;;;10379810;28;20099;-68
2021/06/24 13:45:22;;;;;;;10.55;8.23;;;18.50;99.90;;;;;;10424409;28;20049;-68
2021/06/24 13:50:25;;;;;;;10.02;7.35;;;18.60;99.90;;;;;;10426909;28;20053;-68
2021/06/24 13:55:48;;;;;;;9.95;7.07;;;18.80;99.90;;;;;;10377965;28;20129;-68
2021/06/24 14:00:51;;;;;;;8.73;7.03;;;18.80;99.90;;;;;;10426430;28;20056;-68
2021/06/24 14:05:53;;;;;;;11.98;7.45;;;18.90;99.90;;;;;;10428043;28;20499;-68
2021/06/24 14:10:54;;;;;;;9.05;6.18;;;19.00;99.90;;;;;;10407295;28;20049;-68
2021/06/24 14:15:56;;;;;;;10.48;6.95;;;19.00;99.90;;;;;;10425622;28;21213;-68
2021/06/24 14:20:58;;;;;;;6.70;6.00;;;19.00;99.90;;;;;;10426014;28;20139;-68
2021/06/24 14:26:00;;;;;;;9.43;7.03;;;18.90;99.90;;;;;;10425634;28;20989;-68
2021/06/24 14:31:03;;;;;;;11.77;7.10;;;19.00;99.90;;;;;;10423010;28;20069;-68
2021/06/24 14:36:07;;;;;;;12.90;8.25;;;19.00;99.90;;;;;;10423342;28;20045;-67
2021/06/24 14:41:11;;;;;;;10.85;6.75;;;19.00;99.90;;;;;;10426948;28;20480;-68
2021/06/24 14:46:13;;;;;;;13.55;6.80;;;18.90;99.90;;;;;;10424280;28;20053;-68
2021/06/24 14:51:15;;;;;;;9.02;6.93;;;18.80;99.90;;;;;;10424822;28;20051;-68
2021/06/24 14:56:19;;;;;;;9.55;7.63;;;18.80;99.90;;;;;;10425632;28;20064;-68
2021/06/24 15:01:20;;;;;;;9.05;6.72;;;18.80;99.90;;;;;;10425611;28;20065;-68
2021/06/24 15:06:22;;;;;;;8.45;5.53;;;18.70;99.90;;;;;;10430065;28;20396;-68
2021/06/24 15:11:24;;;;;;;9.63;5.95;;;18.70;99.90;;;;;;10433281;28;22961;-69
2021/06/24 15:16:26;;;;;;;10.40;7.82;;;18.70;99.90;;;;;;10433815;28;20111;-69
2021/06/24 15:21:29;;;;;;;9.20;6.55;;;18.60;99.90;;;;;;10447376;28;20364;-67
2021/06/24 15:26:31;;;;;;;10.63;7.30;;;18.60;99.90;;;;;;10430365;28;20056;-65
2021/06/24 15:31:32;;;;;;;8.23;5.78;;;18.60;99.90;;;;;;10429432;28;20049;-66
2021/06/24 15:36:34;;;;;;;8.63;5.68;;;18.40;99.90;;;;;;10430659;28;20124;-65
2021/06/24 15:41:36;;;;;;;7.97;5.38;;;18.50;99.90;;;;;;10433367;28;20132;-65
2021/06/24 15:46:38;;;;;;;11.43;6.28;;;18.50;99.90;;;;;;10430068;28;20045;-63
2021/06/24 15:51:40;;;;;;;10.00;5.78;;;18.50;99.90;;;;;;10431864;28;20120;-65
2021/06/24 15:56:43;;;;;;;6.85;5.45;;;18.60;99.90;;;;;;10429426;28;20041;-65
2021/06/24 16:01:45;;;;;;;6.90;4.15;;;18.60;99.90;;;;;;10427569;28;20471;-65
2021/06/24 16:06:46;;;;;;;5.75;4.45;;;18.60;99.90;;;;;;10430351;28;20095;-67
2021/06/24 16:11:48;;;;;;;7.35;5.22;;;18.70;99.90;;;;;;10426613;28;20048;-66
2021/06/24 16:16:50;;;;;;;7.72;3.85;;;18.80;99.90;;;;;;10425942;28;20076;-65
2021/06/24 16:21:52;;;;;;;4.97;3.80;;;18.90;99.90;;;;;;10429151;28;20049;-65
2021/06/24 16:26:53;;;;;;;4.07;3.00;;;18.90;99.90;;;;;;10429548;28;20102;-66
2021/06/24 16:31:55;;;;;;;3.78;2.45;;;19.20;99.90;;;;;;10425960;28;20053;-65
2021/06/24 16:36:58;;;;;;;4.47;2.50;;;19.60;99.90;;;;;;10426964;28;20079;-64
2021/06/24 16:42:00;;;;;;;3.78;2.15;;;19.50;99.90;;;;;;10429346;28;20201;-63
2021/06/24 16:47:02;;;;;;;5.30;2.20;;;19.50;99.90;;;;;;10420431;28;20057;-63
2021/06/24 16:52:04;;;;;;;2.33;1.92;;;19.60;99.90;;;;;;10427661;28;20098;-64
2021/06/24 16:57:06;;;;;;;2.45;1.25;;;19.70;99.90;;;;;;10425702;28;20047;-64
2021/06/24 17:02:08;;;;;;;2.33;1.48;;;19.60;99.90;;;;;;10426428;28;20133;-64
2021/06/24 17:07:10;;;;;;;1.08;0.98;;;19.70;99.90;;;;;;10429205;28;20052;-64
2021/06/24 17:12:12;;;;;;;1.90;0.85;;;19.70;99.90;;;;;;10423439;28;20551;-63
2021/06/24 17:17:14;;;;;;;2.42;1.23;;;19.70;99.90;;;;;;10424452;28;20073;-64
2021/06/24 17:22:16;;;;;;;2.42;1.25;;;19.80;99.90;;;;;;10428406;28;20095;-65
2021/06/24 17:27:17;;;;;;;1.52;1.00;;;20.40;99.90;;;;;;10422216;28;20171;-64
2021/06/24 17:32:19;;;;;;;1.60;0.50;;;20.40;99.90;;;;;;10424053;28;20114;-64
2021/06/24 17:37:21;;;;;;;1.92;0.60;;;20.80;99.90;;;;;;10427916;28;20055;-65
2021/06/24 17:42:23;;;;;;;1.45;0.80;;;20.90;99.90;;;;;;10421023;28;20057;-64
2021/06/24 17:47:25;;;;;;;1.13;0.80;;;21.70;99.90;;;;;;10428422;28;20092;-64
2021/06/24 17:52:26;;;;;;;2.15;0.90;;;21.70;99.90;;;;;;10426266;28;20515;-64
2021/06/24 17:57:28;;;;;;;3.63;0.95;;;22.10;99.90;;;;;;10428230;28;20053;-64
2021/06/24 18:02:31;;;;;;;4.15;1.50;;;22.40;99.90;;;;;;10425911;28;20119;-63
2021/06/24 18:07:33;;;;;;;5.78;1.20;;;21.00;99.90;;;;;;10424438;28;20136;-64
2021/06/24 18:12:35;;;;;;;2.10;1.33;;;20.60;99.90;;;;;;10421770;28;20498;-63
2021/06/24 18:17:37;;;;;;;4.63;1.63;;;20.40;99.90;;;;;;10422465;28;20045;-63
2021/06/24 18:22:41;;;;;;;2.38;1.58;;;19.90;99.90;;;;;;10417682;28;20045;-63
2021/06/24 18:27:43;;;;;;;4.40;2.28;;;19.70;99.90;;;;;;10420231;28;20120;-63
2021/06/24 18:32:44;;;;;;;3.00;1.92;;;19.50;99.90;;;;;;10420930;28;20045;-63
2021/06/24 18:37:46;;;;;;;3.47;2.10;;;19.50;99.90;;;;;;10427550;28;20060;-63
2021/06/24 18:42:48;;;;;;;3.03;2.28;;;19.40;99.90;;;;;;10431853;28;20660;-63
2021/06/24 18:47:49;;;;;;;3.17;2.35;;;19.30;99.90;;;;;;10426754;28;20107;-64
2021/06/24 18:52:51;;;;;;;4.18;2.42;;;19.30;99.90;;;;;;10433692;28;20118;-65
2021/06/24 18:57:53;;;;;;;7.10;2.22;;;19.20;99.90;;;;;;10430850;28;20065;-64
2021/06/24 19:02:54;;;;;;;7.07;3.00;;;19.10;99.90;;;;;;10430621;28;20456;-64
2021/06/24 19:07:59;;;;;;;3.45;2.60;;;19.00;99.90;;;;;;10431248;28;20140;-64
2021/06/24 19:13:03;;;;;;;3.53;2.80;;;18.90;99.90;;;;;;10428387;28;20114;-63
2021/06/24 19:18:06;;;;;;;5.80;2.85;;;18.90;99.90;;;;;;10429905;28;20036;-64
2021/06/24 19:23:09;;;;;;;2.55;2.30;;;18.80;99.90;;;;;;10432310;28;20049;-62
2021/06/24 19:28:10;;;;;;;7.07;2.10;;;18.70;99.90;;;;;;10431418;28;20138;-63
2021/06/24 19:33:12;;;;;;;4.43;1.98;;;18.60;99.90;;;;;;10429761;28;20049;-62
2021/06/24 19:38:14;;;;;;;6.60;2.50;;;18.50;99.90;;;;;;10433034;28;20045;-64
2021/06/24 19:43:15;;;;;;;3.05;2.40;;;18.40;99.90;;;;;;10428404;28;20064;-63
2021/06/24 19:48:17;;;;;;;5.90;1.88;;;18.30;99.90;;;;;;10429660;28;20051;-64
2021/06/24 19:53:19;;;;;;;4.20;2.05;;;18.20;99.90;;;;;;10431199;28;20126;-63
2021/06/24 19:58:22;;;;;;;3.67;2.30;;;18.10;99.90;;;;;;10429925;28;20123;-63
2021/06/24 20:03:24;;;;;;;5.00;2.17;;;17.90;99.90;;;;;;10433412;28;20064;-63
2021/06/24 20:08:25;;;;;;;6.20;2.72;;;17.90;99.90;;;;;;10431291;28;20106;-63
2021/06/24 20:13:27;;;;;;;6.30;3.40;;;17.80;99.90;;;;;;10428392;28;20099;-63
2021/06/24 20:18:28;;;;;;;6.82;3.35;;;17.70;99.90;;;;;;10429712;28;20076;-64
2021/06/24 20:23:34;;;;;;;4.43;3.10;;;17.60;99.90;;;;;;10430494;28;20375;-69
2021/06/24 20:28:36;;;;;;;4.63;3.17;;;17.60;99.90;;;;;;10426364;28;20131;-69
2021/06/24 20:33:38;;;;;;;4.43;3.13;;;17.60;99.90;;;;;;10421340;28;20083;-68
2021/06/24 20:38:41;;;;;;;5.78;3.35;;;17.50;99.90;;;;;;10429105;28;20537;-69
2021/06/24 20:43:43;;;;;;;6.80;3.60;;;17.50;99.90;;;;;;10424972;28;20061;-69
2021/06/24 20:48:45;;;;;;;7.55;3.78;;;17.40;99.90;;;;;;10426838;28;20118;-68
2021/06/24 20:53:47;;;;;;;7.47;4.45;;;17.30;99.90;;;;;;10429761;28;20088;-68
2021/06/24 20:58:48;;;;;;;4.80;3.85;;;17.30;99.90;;;;;;10426645;28;20095;-69
2021/06/24 21:03:50;;;;;;;6.70;4.03;;;17.20;99.90;;;;;;10427253;28;20056;-69
2021/06/24 21:08:52;;;;;;;8.32;3.95;;;17.20;99.90;;;;;;10427428;28;20049;-68
2021/06/24 21:13:54;;;;;;;6.85;4.40;;;17.20;99.90;;;;;;10429252;28;20052;-68
2021/06/24 21:18:56;;;;;;;10.55;3.83;;;17.20;99.90;;;;;;10426915;28;20081;-69
2021/06/24 21:23:57;;;;;;;6.10;3.67;;;17.20;99.90;;;;;;10430554;28;20048;-68
2021/06/24 21:28:59;;;;;;;9.80;4.28;;;17.20;99.90;;;;;;10427601;28;20369;-68
2021/06/24 21:34:01;;;;;;;4.43;3.65;;;17.20;99.90;;;;;;10426360;28;20126;-69
2021/06/24 21:39:04;;;;;;;6.63;3.42;;;17.20;99.90;;;;;;10424114;28;20122;-68
2021/06/24 21:44:05;;;;;;;6.50;4.13;;;17.10;99.90;;;;;;10422559;28;20441;-68
2021/06/24 21:49:07;;;;;;;6.47;4.03;;;17.10;99.90;;;;;;10420652;28;20080;-69
2021/06/24 21:54:09;;;;;;;6.03;3.85;;;17.10;99.90;;;;;;10424824;28;20073;-68
2021/06/24 21:59:11;;;;;;;5.00;3.63;;;17.00;99.90;;;;;;10429550;28;20088;-68
2021/06/24 22:04:12;;;;;;;6.53;3.92;;;17.10;99.90;;;;;;10423632;28;20076;-68
2021/06/24 22:09:14;;;;;;;6.57;3.55;;;17.10;99.90;;;;;;10427050;28;20517;-69
2021/06/24 22:14:15;;;;;;;5.07;3.08;;;17.10;99.90;;;;;;10431622;28;20053;-69
2021/06/24 22:19:17;;;;;;;5.97;3.05;;;17.00;99.90;;;;;;10434178;28;20076;-68
2021/06/24 22:24:20;;;;;;;4.93;2.72;;;17.00;99.90;;;;;;10435233;28;20211;-68
2021/06/24 22:29:21;;;;;;;5.32;3.00;;;17.00;99.90;;;;;;10429999;28;20106;-69
2021/06/24 22:34:23;;;;;;;4.45;2.72;;;17.00;99.90;;;;;;10434620;28;20092;-66
2021/06/24 22:39:25;;;;;;;3.33;2.78;;;17.00;99.90;;;;;;10433304;28;20075;-67
2021/06/24 22:44:26;;;;;;;6.45;3.03;;;17.00;99.90;;;;;;10447489;28;20430;-67
2021/06/24 22:49:28;;;;;;;3.92;3.33;;;17.00;99.90;;;;;;10432624;28;21121;-68
2021/06/24 22:54:30;;;;;;;8.10;2.70;;;17.00;99.90;;;;;;10434273;28;20068;-68
2021/06/24 22:59:31;;;;;;;7.95;3.17;;;17.00;99.90;;;;;;10432950;28;20123;-69
2021/06/24 23:04:33;;;;;;;8.05;3.90;;;16.90;99.90;;;;;;10429539;28;20075;-68
2021/06/24 23:09:34;;;;;;;6.88;3.65;;;17.00;99.90;;;;;;10435263;28;20068;-68
2021/06/24 23:14:36;;;;;;;11.93;3.97;;;16.90;99.90;;;;;;10432769;28;20543;-68
2021/06/24 23:19:38;;;;;;;4.63;3.47;;;16.90;99.90;;;;;;10433272;28;20049;-69
2021/06/24 23:24:39;;;;;;;8.02;4.03;;;16.90;99.90;;;;;;10425405;28;20110;-67
2021/06/24 23:29:41;;;;;;;6.20;3.55;;;16.80;99.90;;;;;;10429498;28;20045;-68
2021/06/24 23:34:43;;;;;;;7.20;3.35;;;16.80;99.90;;;;;;10427694;28;20107;-68
2021/06/24 23:39:45;;;;;;;8.82;4.05;;;16.80;99.90;;;;;;10428804;28;20076;-69
2021/06/24 23:44:46;;;;;;;4.18;3.25;;;16.90;99.90;;;;;;10424214;28;20130;-69
2021/06/24 23:49:48;;;;;;;11.63;4.47;;;16.90;99.90;;;;;;10430983;28;20078;-72
2021/06/24 23:54:50;;;;;;;14.95;5.00;;;16.90;99.90;;;;;;10432084;28;20186;-69
2021/06/24 23:59:52;;;;;;;6.63;3.95;;;16.90;99.90;;;;;;10429131;28;20045;-69
